createdAt,value
2018-05-01T00:00:29.545Z,983.08
2018-05-01T00:01:29.529Z,983.05
2018-05-01T00:02:29.508Z,983.07
2018-05-01T00:03:29.485Z,983.10
2018-05-01T00:04:29.468Z,983.06
2018-05-01T00:05:29.451Z,983.01
2018-05-01T00:06:29.438Z,982.98
2018-05-01T00:07:29.409Z,982.98
2018-05-01T00:08:29.396Z,982.94
2018-05-01T00:09:29.374Z,982.95
2018-05-01T00:10:29.356Z,982.99
2018-05-01T00:11:29.330Z,983.00
2018-05-01T00:12:29.315Z,983.05
2018-05-01T00:13:29.292Z,983.08
2018-05-01T00:14:29.271Z,983.09
2018-05-01T00:15:29.252Z,983.06
2018-05-01T00:16:29.231Z,983.01
2018-05-01T00:17:29.222Z,983.01
2018-05-01T00:18:29.192Z,982.90
2018-05-01T00:19:29.175Z,982.91
2018-05-01T00:20:29.152Z,982.83
2018-05-01T00:21:29.137Z,982.82
2018-05-01T00:22:29.111Z,982.84
2018-05-01T00:23:29.099Z,982.86
2018-05-01T00:24:29.082Z,982.88
2018-05-01T00:25:29.054Z,982.84
2018-05-01T00:26:29.036Z,982.84
2018-05-01T00:27:29.013Z,982.85
2018-05-01T00:28:28.994Z,982.92
2018-05-01T00:29:28.974Z,982.93
2018-05-01T00:30:28.950Z,982.97
2018-05-01T00:31:28.951Z,982.96
2018-05-01T00:32:28.921Z,982.96
2018-05-01T00:33:28.902Z,982.87
2018-05-01T00:34:28.878Z,982.81
2018-05-01T00:35:28.857Z,982.86
2018-05-01T00:36:28.829Z,982.87
2018-05-01T00:37:28.819Z,982.95
2018-05-01T00:38:28.798Z,982.98
2018-05-01T00:39:28.771Z,982.95
2018-05-01T00:40:28.795Z,982.98
2018-05-01T00:41:28.803Z,983.01
2018-05-01T00:42:28.712Z,983.04
2018-05-01T00:43:28.699Z,983.17
2018-05-01T00:44:28.670Z,983.12
2018-05-01T00:45:28.650Z,983.10
2018-05-01T00:46:28.642Z,983.20
2018-05-01T00:47:28.609Z,983.26
2018-05-01T00:48:28.590Z,983.20
2018-05-01T00:49:28.571Z,983.17
2018-05-01T00:50:28.556Z,983.18
2018-05-01T00:51:28.551Z,983.18
2018-05-01T00:52:28.512Z,983.20
2018-05-01T00:53:28.493Z,983.18
2018-05-01T00:54:28.472Z,983.23
2018-05-01T00:55:28.454Z,983.23
2018-05-01T00:56:28.442Z,983.22
2018-05-01T00:57:28.409Z,983.21
2018-05-01T00:58:28.400Z,983.23
2018-05-01T00:59:28.365Z,983.21
2018-05-01T01:00:28.350Z,983.20
2018-05-01T01:01:28.332Z,983.23
2018-05-01T01:02:28.310Z,983.28
2018-05-01T01:03:28.285Z,983.41
2018-05-01T01:04:28.265Z,983.35
2018-05-01T01:05:28.249Z,983.34
2018-05-01T01:06:28.227Z,983.25
2018-05-01T01:07:28.207Z,983.26
2018-05-01T01:08:28.181Z,983.14
2018-05-01T01:09:28.165Z,983.16
2018-05-01T01:10:28.145Z,983.15
2018-05-01T01:11:28.125Z,983.10
2018-05-01T01:12:28.104Z,982.99
2018-05-01T01:13:28.089Z,983.09
2018-05-01T01:14:28.069Z,983.10
2018-05-01T01:15:28.043Z,983.07
2018-05-01T01:16:28.026Z,983.11
2018-05-01T01:17:28.017Z,983.24
2018-05-01T01:18:27.984Z,983.25
2018-05-01T01:19:27.975Z,983.16
2018-05-01T01:20:27.944Z,983.11
2018-05-01T01:21:27.925Z,983.15
2018-05-01T01:22:27.903Z,983.06
2018-05-01T01:23:27.879Z,983.07
2018-05-01T01:24:27.907Z,983.06
2018-05-01T01:25:27.937Z,982.99
2018-05-01T01:26:27.933Z,983.04
2018-05-01T01:27:28.814Z,983.03
2018-05-01T01:28:27.910Z,982.98
2018-05-01T01:29:27.845Z,983.08
2018-05-01T01:30:48.744Z,983.05
2018-05-01T01:31:27.721Z,982.92
2018-05-01T01:32:27.703Z,983.06
2018-05-01T01:33:27.687Z,983.03
2018-05-01T01:34:27.661Z,983.04
2018-05-01T01:35:27.644Z,983.11
2018-05-01T01:36:27.630Z,983.17
2018-05-01T01:37:27.609Z,983.10
2018-05-01T01:38:27.580Z,983.01
2018-05-01T01:39:27.562Z,983.22
2018-05-01T01:40:27.538Z,983.18
2018-05-01T01:41:27.538Z,983.18
2018-05-01T01:42:27.496Z,983.12
2018-05-01T01:43:27.476Z,983.06
2018-05-01T01:44:27.457Z,983.11
2018-05-01T01:45:27.439Z,983.07
2018-05-01T01:46:27.422Z,983.03
2018-05-01T01:47:27.396Z,983.10
2018-05-01T01:48:28.059Z,983.06
2018-05-01T01:49:27.365Z,983.10
2018-05-01T01:50:27.339Z,983.16
2018-05-01T01:51:27.324Z,983.14
2018-05-01T01:52:27.297Z,983.02
2018-05-01T01:53:27.280Z,983.16
2018-05-01T01:54:27.266Z,983.10
2018-05-01T01:55:27.233Z,983.04
2018-05-01T01:56:27.215Z,983.02
2018-05-01T01:57:27.198Z,983.16
2018-05-01T01:58:27.175Z,983.09
2018-05-01T01:59:27.152Z,983.04
2018-05-01T02:00:27.144Z,983.22
2018-05-01T02:01:27.112Z,983.08
2018-05-01T02:02:27.098Z,983.33
2018-05-01T02:03:27.069Z,982.98
2018-05-01T02:04:27.051Z,983.03
2018-05-01T02:05:27.041Z,983.12
2018-05-01T02:06:27.011Z,983.11
2018-05-01T02:07:26.992Z,983.04
2018-05-01T02:08:27.015Z,983.14
2018-05-01T02:09:27.238Z,983.11
2018-05-01T02:10:26.940Z,983.00
2018-05-01T02:11:26.906Z,983.09
2018-05-01T02:12:26.893Z,983.07
2018-05-01T02:13:26.869Z,983.35
2018-05-01T02:14:26.849Z,983.22
2018-05-01T02:15:26.832Z,983.20
2018-05-01T02:16:26.809Z,983.14
2018-05-01T02:17:26.784Z,983.05
2018-05-01T02:18:26.763Z,983.04
2018-05-01T02:19:26.748Z,983.13
2018-05-01T02:20:26.720Z,983.07
2018-05-01T02:21:26.702Z,983.18
2018-05-01T02:22:26.684Z,983.12
2018-05-01T02:23:26.672Z,983.19
2018-05-01T02:24:26.641Z,983.26
2018-05-01T02:25:26.623Z,983.28
2018-05-01T02:26:26.601Z,983.04
2018-05-01T02:27:26.600Z,983.18
2018-05-01T02:28:26.557Z,983.35
2018-05-01T02:29:26.536Z,983.12
2018-05-01T02:30:26.654Z,983.22
2018-05-01T02:31:26.495Z,983.29
2018-05-01T02:32:26.471Z,983.02
2018-05-01T02:33:26.454Z,983.16
2018-05-01T02:34:26.450Z,983.18
2018-05-01T02:35:26.412Z,983.16
2018-05-01T02:36:26.394Z,983.26
2018-05-01T02:37:26.378Z,983.35
2018-05-01T02:38:26.352Z,983.24
2018-05-01T02:39:26.330Z,983.27
2018-05-01T02:40:26.310Z,983.38
2018-05-01T02:41:26.298Z,983.38
2018-05-01T02:42:26.283Z,983.32
2018-05-01T02:43:26.246Z,983.56
2018-05-01T02:44:26.225Z,983.36
2018-05-01T02:45:26.205Z,983.49
2018-05-01T02:46:26.215Z,983.56
2018-05-01T02:47:26.166Z,983.49
2018-05-01T02:48:26.141Z,983.46
2018-05-01T02:49:26.126Z,983.44
2018-05-01T02:50:26.101Z,983.42
2018-05-01T02:51:26.128Z,983.38
2018-05-01T02:52:26.061Z,983.50
2018-05-01T02:53:26.067Z,983.66
2018-05-01T02:54:26.021Z,983.47
2018-05-01T02:55:25.998Z,983.43
2018-05-01T02:56:25.975Z,983.40
2018-05-01T02:57:25.968Z,983.45
2018-05-01T02:58:25.950Z,983.44
2018-05-01T02:59:25.960Z,983.42
2018-05-01T03:00:25.981Z,983.43
2018-05-01T03:01:25.965Z,983.45
2018-05-01T03:02:25.927Z,983.40
2018-05-01T03:03:25.893Z,983.35
2018-05-01T03:04:25.855Z,983.51
2018-05-01T03:05:25.808Z,983.31
2018-05-01T03:06:25.781Z,983.28
2018-05-01T03:07:25.747Z,983.42
2018-05-01T03:08:25.733Z,983.53
2018-05-01T03:09:25.709Z,983.47
2018-05-01T03:10:25.687Z,983.40
2018-05-01T03:11:25.666Z,983.50
2018-05-01T03:12:25.645Z,983.39
2018-05-01T03:13:25.620Z,983.44
2018-05-01T03:14:25.601Z,983.60
2018-05-01T03:15:25.580Z,983.34
2018-05-01T03:16:25.563Z,983.40
2018-05-01T03:17:25.544Z,983.42
2018-05-01T03:18:25.521Z,983.48
2018-05-01T03:19:25.502Z,983.46
2018-05-01T03:20:25.473Z,983.36
2018-05-01T03:21:25.453Z,983.48
2018-05-01T03:22:25.433Z,983.47
2018-05-01T03:23:25.430Z,983.54
2018-05-01T03:24:25.390Z,983.45
2018-05-01T03:25:25.450Z,983.55
2018-05-01T03:26:25.361Z,983.57
2018-05-01T03:27:25.330Z,983.53
2018-05-01T03:28:25.314Z,983.59
2018-05-01T03:29:25.290Z,983.54
2018-05-01T03:30:25.267Z,983.52
2018-05-01T03:31:25.251Z,983.51
2018-05-01T03:32:25.253Z,983.49
2018-05-01T03:33:25.206Z,983.47
2018-05-01T03:34:25.230Z,983.49
2018-05-01T03:35:25.162Z,983.59
2018-05-01T03:36:25.143Z,983.52
2018-05-01T03:37:25.120Z,983.52
2018-05-01T03:38:25.100Z,983.50
2018-05-01T03:39:25.080Z,983.51
2018-05-01T03:40:25.061Z,983.62
2018-05-01T03:41:25.042Z,983.55
2018-05-01T03:42:25.031Z,983.64
2018-05-01T03:43:25.046Z,983.64
2018-05-01T03:44:24.989Z,983.58
2018-05-01T03:45:24.952Z,983.64
2018-05-01T03:46:24.930Z,983.58
2018-05-01T03:47:24.916Z,983.61
2018-05-01T03:48:24.892Z,983.65
2018-05-01T03:49:24.869Z,983.54
2018-05-01T03:50:24.845Z,983.64
2018-05-01T03:51:24.832Z,983.61
2018-05-01T03:52:24.803Z,983.63
2018-05-01T03:53:24.784Z,983.72
2018-05-01T03:54:24.763Z,983.63
2018-05-01T03:55:24.743Z,983.82
2018-05-01T03:56:24.719Z,983.79
2018-05-01T03:57:24.704Z,983.81
2018-05-01T03:58:24.687Z,983.81
2018-05-01T03:59:24.661Z,983.87
2018-05-01T04:00:24.649Z,984.01
2018-05-01T04:01:39.226Z,983.98
2018-05-01T04:02:24.602Z,984.01
2018-05-01T04:03:24.576Z,984.03
2018-05-01T04:04:24.557Z,984.04
2018-05-01T04:05:24.538Z,984.11
2018-05-01T04:06:24.520Z,984.07
2018-05-01T04:07:24.501Z,984.15
2018-05-01T04:08:24.478Z,984.08
2018-05-01T04:09:24.452Z,984.13
2018-05-01T04:10:24.437Z,984.11
2018-05-01T04:11:24.410Z,984.17
2018-05-01T04:12:24.391Z,984.15
2018-05-01T04:13:24.372Z,984.11
2018-05-01T04:14:24.388Z,984.22
2018-05-01T04:15:24.330Z,984.22
2018-05-01T04:16:24.313Z,984.19
2018-05-01T04:17:24.330Z,984.26
2018-05-01T04:18:24.311Z,984.35
2018-05-01T04:19:24.247Z,984.26
2018-05-01T04:20:24.227Z,984.24
2018-05-01T04:21:24.201Z,984.18
2018-05-01T04:22:24.185Z,984.21
2018-05-01T04:23:24.166Z,984.22
2018-05-01T04:24:24.141Z,984.22
2018-05-01T04:25:24.148Z,984.21
2018-05-01T04:26:24.103Z,984.27
2018-05-01T04:27:24.084Z,984.15
2018-05-01T04:28:24.059Z,984.21
2018-05-01T04:29:24.040Z,984.21
2018-05-01T04:30:24.028Z,984.18
2018-05-01T04:31:24.032Z,984.20
2018-05-01T04:33:58.701Z,984.20
2018-05-01T04:34:58.599Z,984.27
2018-05-01T04:36:54.637Z,984.26
2018-05-01T04:37:54.553Z,984.30
2018-05-01T04:39:50.541Z,984.32
2018-05-01T04:40:50.453Z,984.24
2018-05-01T04:42:46.520Z,984.28
2018-05-01T04:43:46.343Z,984.29
2018-05-01T04:45:42.461Z,984.46
2018-05-01T04:46:42.407Z,984.44
2018-05-01T04:48:38.419Z,984.62
2018-05-01T04:49:38.331Z,984.40
2018-05-01T04:51:34.845Z,984.63
2018-05-01T04:52:34.694Z,984.65
2018-05-01T04:54:31.749Z,984.73
2018-05-01T04:55:31.593Z,984.57
2018-05-01T04:57:28.497Z,984.52
2018-05-01T04:58:28.363Z,984.51
2018-05-01T04:59:28.347Z,984.48
2018-05-01T05:00:28.319Z,984.72
2018-05-01T05:01:28.291Z,984.50
2018-05-01T05:02:28.274Z,984.66
2018-05-01T05:03:28.263Z,984.77
2018-05-01T05:04:28.279Z,984.67
2018-05-01T05:05:28.206Z,984.59
2018-05-01T05:06:28.196Z,984.89
2018-05-01T05:07:28.171Z,985.02
2018-05-01T05:08:28.158Z,984.89
2018-05-01T05:09:28.189Z,984.77
2018-05-01T05:10:28.106Z,984.91
2018-05-01T05:11:28.079Z,984.80
2018-05-01T05:12:28.067Z,984.87
2018-05-01T05:13:28.069Z,984.92
2018-05-01T05:14:28.070Z,984.83
2018-05-01T05:15:28.079Z,984.95
2018-05-01T05:16:28.050Z,984.90
2018-05-01T05:17:27.988Z,984.89
2018-05-01T05:18:28.036Z,984.89
2018-05-01T05:19:27.909Z,984.91
2018-05-01T05:20:27.887Z,984.94
2018-05-01T05:21:27.874Z,985.09
2018-05-01T05:22:27.862Z,985.11
2018-05-01T05:23:27.823Z,984.96
2018-05-01T05:24:27.802Z,984.88
2018-05-01T05:25:27.785Z,984.91
2018-05-01T05:26:27.761Z,984.93
2018-05-01T05:27:27.745Z,985.01
2018-05-01T05:28:27.726Z,984.96
2018-05-01T05:29:27.708Z,984.95
2018-05-01T05:30:27.677Z,984.97
2018-05-01T05:31:27.656Z,985.01
2018-05-01T05:32:27.639Z,984.95
2018-05-01T05:33:27.684Z,984.98
2018-05-01T05:34:27.591Z,985.05
2018-05-01T05:35:27.575Z,985.04
2018-05-01T05:36:27.550Z,985.05
2018-05-01T05:37:27.531Z,985.05
2018-05-01T05:38:27.515Z,985.07
2018-05-01T05:39:27.539Z,985.21
2018-05-01T05:40:27.488Z,985.13
2018-05-01T05:41:27.444Z,985.17
2018-05-01T05:42:27.426Z,985.21
2018-05-01T05:43:27.426Z,985.32
2018-05-01T05:44:27.384Z,985.20
2018-05-01T05:45:27.359Z,985.24
2018-05-01T05:46:27.340Z,985.30
2018-05-01T05:47:27.320Z,985.41
2018-05-01T05:48:27.296Z,985.16
2018-05-01T05:49:27.278Z,985.19
2018-05-01T05:50:27.253Z,985.26
2018-05-01T05:51:27.248Z,985.27
2018-05-01T05:52:27.207Z,985.35
2018-05-01T05:53:27.187Z,985.37
2018-05-01T05:54:27.190Z,985.38
2018-05-01T05:55:27.160Z,985.36
2018-05-01T05:56:27.130Z,985.43
2018-05-01T05:57:34.062Z,985.54
2018-05-01T05:58:27.088Z,985.46
2018-05-01T05:59:27.064Z,985.39
2018-05-01T06:00:27.038Z,985.36
2018-05-01T06:01:27.019Z,985.44
2018-05-01T06:02:27.016Z,985.62
2018-05-01T06:03:26.975Z,985.55
2018-05-01T06:04:26.954Z,985.52
2018-05-01T06:05:26.934Z,985.65
2018-05-01T06:06:26.924Z,985.53
2018-05-01T06:07:26.890Z,985.47
2018-05-01T06:08:26.868Z,985.58
2018-05-01T06:09:26.846Z,985.58
2018-05-01T06:10:26.824Z,985.61
2018-05-01T06:11:26.803Z,985.68
2018-05-01T06:12:26.786Z,985.66
2018-05-01T06:13:26.842Z,985.67
2018-05-01T06:14:26.738Z,985.63
2018-05-01T06:15:26.719Z,985.72
2018-05-01T06:16:26.702Z,985.72
2018-05-01T06:17:26.675Z,985.77
2018-05-01T06:18:26.652Z,985.83
2018-05-01T06:19:26.636Z,985.77
2018-05-01T06:20:26.659Z,985.78
2018-05-01T06:21:26.590Z,985.72
2018-05-01T06:22:26.583Z,985.72
2018-05-01T06:23:26.545Z,985.80
2018-05-01T06:24:26.542Z,985.83
2018-05-01T06:25:26.501Z,985.71
2018-05-01T06:26:26.482Z,985.81
2018-05-01T06:27:26.461Z,985.76
2018-05-01T06:28:26.440Z,985.78
2018-05-01T06:29:26.423Z,985.89
2018-05-01T06:30:26.396Z,985.86
2018-05-01T06:31:26.391Z,985.88
2018-05-01T06:32:26.354Z,985.84
2018-05-01T06:33:26.335Z,985.97
2018-05-01T06:34:26.310Z,985.91
2018-05-01T06:35:26.293Z,985.91
2018-05-01T06:36:26.272Z,985.95
2018-05-01T06:37:27.241Z,986.02
2018-05-01T06:38:26.231Z,986.00
2018-05-01T06:39:26.210Z,985.93
2018-05-01T06:40:26.186Z,985.99
2018-05-01T06:41:26.176Z,986.06
2018-05-01T06:42:26.161Z,986.04
2018-05-01T06:43:26.153Z,986.05
2018-05-01T06:44:26.176Z,986.12
2018-05-01T06:45:26.171Z,986.15
2018-05-01T06:46:26.214Z,986.17
2018-05-01T06:47:26.073Z,986.16
2018-05-01T06:48:26.015Z,986.46
2018-05-01T06:49:25.995Z,986.21
2018-05-01T06:50:25.976Z,986.20
2018-05-01T06:51:25.952Z,986.21
2018-05-01T06:52:25.929Z,986.21
2018-05-01T06:53:25.906Z,986.18
2018-05-01T06:54:25.890Z,986.20
2018-05-01T06:55:25.871Z,986.39
2018-05-01T06:56:25.862Z,986.26
2018-05-01T06:57:25.828Z,986.30
2018-05-01T07:00:02.147Z,986.31
2018-05-01T07:01:01.904Z,986.26
2018-05-01T07:02:58.978Z,986.50
2018-05-01T07:03:58.802Z,986.41
2018-05-01T07:05:55.836Z,986.23
2018-05-01T07:06:55.777Z,986.36
2018-05-01T07:08:52.814Z,986.35
2018-05-01T07:09:52.691Z,986.26
2018-05-01T07:11:48.705Z,986.25
2018-05-01T07:12:48.618Z,986.24
2018-05-01T07:13:48.601Z,986.30
2018-05-01T07:14:48.578Z,986.32
2018-05-01T07:15:48.606Z,986.31
2018-05-01T07:16:48.548Z,986.43
2018-05-01T07:17:48.899Z,986.46
2018-05-01T07:18:48.497Z,986.50
2018-05-01T07:19:48.466Z,986.46
2018-05-01T07:20:48.447Z,986.43
2018-05-01T07:21:48.428Z,986.43
2018-05-01T07:22:48.403Z,986.52
2018-05-01T07:23:48.382Z,986.55
2018-05-01T07:24:48.369Z,986.57
2018-05-01T07:25:48.338Z,986.60
2018-05-01T07:26:48.315Z,986.61
2018-05-01T07:27:48.298Z,986.66
2018-05-01T07:28:48.273Z,986.67
2018-05-01T07:29:48.262Z,986.78
2018-05-01T07:30:48.235Z,986.66
2018-05-01T07:31:48.208Z,986.66
2018-05-01T07:32:48.196Z,986.59
2018-05-01T07:33:48.195Z,986.61
2018-05-01T07:34:48.199Z,986.69
2018-05-01T07:35:48.204Z,986.77
2018-05-01T07:36:48.177Z,986.68
2018-05-01T07:37:48.108Z,986.73
2018-05-01T07:38:48.161Z,986.67
2018-05-01T07:39:48.040Z,986.63
2018-05-01T07:40:48.030Z,986.71
2018-05-01T07:41:48.042Z,986.68
2018-05-01T07:42:47.993Z,986.72
2018-05-01T07:43:51.043Z,986.73
2018-05-01T07:44:47.950Z,986.66
2018-05-01T07:45:47.920Z,986.66
2018-05-01T07:46:47.897Z,986.67
2018-05-01T07:47:47.874Z,986.75
2018-05-01T07:48:47.875Z,986.66
2018-05-01T07:49:47.873Z,986.58
2018-05-01T07:50:47.809Z,986.70
2018-05-01T07:51:47.784Z,986.57
2018-05-01T07:52:47.770Z,986.68
2018-05-01T07:53:47.748Z,986.59
2018-05-01T07:54:47.721Z,986.69
2018-05-01T07:55:47.698Z,986.86
2018-05-01T07:56:47.676Z,986.51
2018-05-01T07:57:47.668Z,986.50
2018-05-01T07:58:47.636Z,986.57
2018-05-01T07:59:47.612Z,986.50
2018-05-01T08:00:47.677Z,986.59
2018-05-01T08:01:47.569Z,986.52
2018-05-01T08:02:47.575Z,986.69
2018-05-01T08:03:47.528Z,986.61
2018-05-01T08:04:47.509Z,986.45
2018-05-01T08:05:47.486Z,986.46
2018-05-01T08:06:47.467Z,986.58
2018-05-01T08:07:47.445Z,986.47
2018-05-01T08:08:47.425Z,986.63
2018-05-01T08:09:47.400Z,986.47
2018-05-01T08:10:47.379Z,986.63
2018-05-01T08:12:08.392Z,987.08
2018-05-01T08:12:47.337Z,986.64
2018-05-01T08:13:47.314Z,986.83
2018-05-01T08:14:47.291Z,986.82
2018-05-01T08:15:47.272Z,986.80
2018-05-01T08:16:47.255Z,986.67
2018-05-01T08:17:47.229Z,986.68
2018-05-01T08:18:47.215Z,986.70
2018-05-01T08:19:47.185Z,986.57
2018-05-01T08:20:47.169Z,986.62
2018-05-01T08:21:47.144Z,986.79
2018-05-01T08:22:47.130Z,986.73
2018-05-01T08:23:47.098Z,986.69
2018-05-01T08:24:47.080Z,986.68
2018-05-01T08:25:47.059Z,986.94
2018-05-01T08:26:47.034Z,986.53
2018-05-01T08:27:47.013Z,986.84
2018-05-01T08:28:46.991Z,986.74
2018-05-01T08:29:46.985Z,986.67
2018-05-01T08:30:46.989Z,986.70
2018-05-01T08:31:46.982Z,986.64
2018-05-01T08:32:46.924Z,986.77
2018-05-01T08:33:46.885Z,986.67
2018-05-01T08:34:46.865Z,986.71
2018-05-01T08:35:46.841Z,986.77
2018-05-01T08:36:46.825Z,987.04
2018-05-01T08:37:46.807Z,986.77
2018-05-01T08:38:46.786Z,986.83
2018-05-01T08:39:46.769Z,986.75
2018-05-01T08:40:46.734Z,986.69
2018-05-01T08:41:46.716Z,986.83
2018-05-01T08:42:49.613Z,986.72
2018-05-01T08:43:46.673Z,986.61
2018-05-01T08:44:46.649Z,986.72
2018-05-01T08:45:46.628Z,986.77
2018-05-01T08:46:46.605Z,986.66
2018-05-01T08:47:46.583Z,986.61
2018-05-01T08:48:46.696Z,986.90
2018-05-01T08:49:46.563Z,986.69
2018-05-01T08:50:46.529Z,986.64
2018-05-01T08:51:46.499Z,986.70
2018-05-01T08:52:46.482Z,986.61
2018-05-01T08:53:46.457Z,986.65
2018-05-01T08:54:46.436Z,986.65
2018-05-01T08:55:46.415Z,986.68
2018-05-01T08:56:46.398Z,986.79
2018-05-01T08:57:46.373Z,986.72
2018-05-01T08:58:46.354Z,986.73
2018-05-01T08:59:46.331Z,986.78
2018-05-01T09:00:46.313Z,986.62
2018-05-01T09:01:46.289Z,986.60
2018-05-01T09:02:46.292Z,986.77
2018-05-01T09:03:46.275Z,986.73
2018-05-01T09:04:46.280Z,986.68
2018-05-01T09:05:46.281Z,986.90
2018-05-01T09:06:46.254Z,986.92
2018-05-01T09:07:46.237Z,986.80
2018-05-01T09:08:46.144Z,986.87
2018-05-01T09:09:46.131Z,986.98
2018-05-01T09:10:46.102Z,986.75
2018-05-01T09:11:46.085Z,986.81
2018-05-01T09:12:46.098Z,986.80
2018-05-01T09:13:46.098Z,986.76
2018-05-01T09:14:46.023Z,986.79
2018-05-01T09:15:46.001Z,986.83
2018-05-01T09:16:45.983Z,986.86
2018-05-01T09:17:46.071Z,986.89
2018-05-01T09:18:45.939Z,987.05
2018-05-01T09:19:45.921Z,986.97
2018-05-01T09:20:45.893Z,987.05
2018-05-01T09:21:45.879Z,986.98
2018-05-01T09:22:45.853Z,986.99
2018-05-01T09:23:45.836Z,987.23
2018-05-01T09:24:45.821Z,987.30
2018-05-01T09:25:45.795Z,987.13
2018-05-01T09:26:45.773Z,987.05
2018-05-01T09:27:45.752Z,987.05
2018-05-01T09:28:45.739Z,987.00
2018-05-01T09:29:45.713Z,986.98
2018-05-01T09:30:45.692Z,987.04
2018-05-01T09:31:45.673Z,987.12
2018-05-01T09:32:45.659Z,987.08
2018-05-01T09:33:45.647Z,987.09
2018-05-01T09:34:45.625Z,987.13
2018-05-01T09:35:45.590Z,987.16
2018-05-01T09:36:45.580Z,987.22
2018-05-01T09:37:45.555Z,987.31
2018-05-01T09:38:45.541Z,987.38
2018-05-01T09:39:45.511Z,987.35
2018-05-01T09:40:45.503Z,987.21
2018-05-01T09:41:45.473Z,987.24
2018-05-01T09:42:45.474Z,987.34
2018-05-01T09:43:45.449Z,987.22
2018-05-01T09:44:45.416Z,987.24
2018-05-01T09:45:45.395Z,987.28
2018-05-01T09:46:45.384Z,987.28
2018-05-01T09:47:45.356Z,987.22
2018-05-01T09:48:45.344Z,987.16
2018-05-01T09:49:45.319Z,987.07
2018-05-01T09:50:45.298Z,987.11
2018-05-01T09:51:45.281Z,987.20
2018-05-01T09:52:45.264Z,987.14
2018-05-01T09:53:45.243Z,987.12
2018-05-01T09:54:45.255Z,987.10
2018-05-01T09:55:45.229Z,987.05
2018-05-01T09:56:45.188Z,987.11
2018-05-01T09:57:45.213Z,987.16
2018-05-01T09:58:45.273Z,987.07
2018-05-01T09:59:45.135Z,987.12
2018-05-01T10:00:45.122Z,987.34
2018-05-01T10:01:45.159Z,987.15
2018-05-01T10:02:45.078Z,987.22
2018-05-01T10:03:45.055Z,987.22
2018-05-01T10:04:45.043Z,987.19
2018-05-01T10:05:45.027Z,987.38
2018-05-01T10:06:45.012Z,987.20
2018-05-01T10:07:44.983Z,987.21
2018-05-01T10:08:44.970Z,987.29
2018-05-01T10:09:44.960Z,987.17
2018-05-01T10:10:44.942Z,987.27
2018-05-01T10:11:44.911Z,987.36
2018-05-01T10:12:44.894Z,987.38
2018-05-01T10:13:44.876Z,987.35
2018-05-01T10:14:44.862Z,987.28
2018-05-01T10:15:44.839Z,987.29
2018-05-01T10:16:44.831Z,987.52
2018-05-01T10:17:44.814Z,987.48
2018-05-01T10:18:44.815Z,987.24
2018-05-01T10:19:44.767Z,987.40
2018-05-01T10:20:44.756Z,987.37
2018-05-01T10:21:44.731Z,987.29
2018-05-01T10:22:44.724Z,987.15
2018-05-01T10:23:44.708Z,987.28
2018-05-01T10:24:44.679Z,987.26
2018-05-01T10:25:44.667Z,987.22
2018-05-01T10:26:44.644Z,987.42
2018-05-01T10:27:44.628Z,987.53
2018-05-01T10:28:44.679Z,987.38
2018-05-01T10:29:44.592Z,987.38
2018-05-01T10:30:44.578Z,987.44
2018-05-01T10:31:44.564Z,987.38
2018-05-01T10:32:44.546Z,987.51
2018-05-01T10:33:44.530Z,987.43
2018-05-01T10:34:44.527Z,987.52
2018-05-01T10:35:44.492Z,987.45
2018-05-01T10:36:44.475Z,987.59
2018-05-01T10:37:44.462Z,987.57
2018-05-01T10:38:44.551Z,987.73
2018-05-01T10:39:44.429Z,987.62
2018-05-01T10:40:44.409Z,987.69
2018-05-01T10:41:44.404Z,987.62
2018-05-01T10:42:44.435Z,987.67
2018-05-01T10:43:44.426Z,987.74
2018-05-01T10:44:44.429Z,987.66
2018-05-01T10:45:44.442Z,987.75
2018-05-01T10:46:44.428Z,987.64
2018-05-01T10:47:44.379Z,987.60
2018-05-01T10:48:44.366Z,987.64
2018-05-01T10:49:44.399Z,987.67
2018-05-01T10:50:44.395Z,987.72
2018-05-01T10:51:44.231Z,987.91
2018-05-01T10:52:44.232Z,987.88
2018-05-01T10:53:44.336Z,988.06
2018-05-01T10:54:44.252Z,987.86
2018-05-01T10:55:44.172Z,987.87
2018-05-01T10:56:44.163Z,988.06
2018-05-01T10:57:44.137Z,988.02
2018-05-01T10:58:44.127Z,988.11
2018-05-01T10:59:44.115Z,988.03
2018-05-01T11:00:44.087Z,988.19
2018-05-01T11:01:44.083Z,988.03
2018-05-01T11:02:44.057Z,988.01
2018-05-01T11:03:44.039Z,988.37
2018-05-01T11:04:44.024Z,988.13
2018-05-01T11:05:44.010Z,988.26
2018-05-01T11:06:43.993Z,988.20
2018-05-01T11:07:44.022Z,988.05
2018-05-01T11:08:43.964Z,988.12
2018-05-01T11:09:43.953Z,988.19
2018-05-01T11:10:43.936Z,988.32
2018-05-01T11:11:43.925Z,988.19
2018-05-01T11:12:43.902Z,988.21
2018-05-01T11:13:43.887Z,988.09
2018-05-01T11:14:43.869Z,988.51
2018-05-01T11:15:43.850Z,988.17
2018-05-01T11:16:43.837Z,988.13
2018-05-01T11:17:43.818Z,988.12
2018-05-01T11:18:43.807Z,988.15
2018-05-01T11:19:43.822Z,988.11
2018-05-01T11:20:43.769Z,988.07
2018-05-01T11:21:43.758Z,988.10
2018-05-01T11:22:43.739Z,988.46
2018-05-01T11:23:43.720Z,988.25
2018-05-01T11:24:43.710Z,988.08
2018-05-01T11:25:43.696Z,988.18
2018-05-01T11:26:43.673Z,988.21
2018-05-01T11:27:43.652Z,988.14
2018-05-01T11:28:43.637Z,988.18
2018-05-01T11:29:43.621Z,988.30
2018-05-01T11:30:43.638Z,988.25
2018-05-01T11:31:43.589Z,988.22
2018-05-01T11:32:43.573Z,988.16
2018-05-01T11:33:43.617Z,988.33
2018-05-01T11:34:43.553Z,988.47
2018-05-01T11:35:43.522Z,988.45
2018-05-01T11:36:43.504Z,988.49
2018-05-01T11:37:43.489Z,988.51
2018-05-01T11:38:43.481Z,988.43
2018-05-01T11:39:43.458Z,988.41
2018-05-01T11:40:43.478Z,988.37
2018-05-01T11:41:43.477Z,988.37
2018-05-01T11:42:43.408Z,988.33
2018-05-01T11:43:43.395Z,988.39
2018-05-01T11:44:43.371Z,989.02
2018-05-01T11:45:43.355Z,988.59
2018-05-01T11:46:43.358Z,988.58
2018-05-01T11:47:43.335Z,989.82
2018-05-01T11:48:43.361Z,988.51
2018-05-01T11:49:43.290Z,988.60
2018-05-01T11:50:43.279Z,988.62
2018-05-01T11:51:43.262Z,988.41
2018-05-01T11:52:43.243Z,988.46
2018-05-01T11:53:43.262Z,988.66
2018-05-01T11:54:43.213Z,988.39
2018-05-01T11:55:43.194Z,988.42
2018-05-01T11:56:43.174Z,988.37
2018-05-01T11:57:43.158Z,988.38
2018-05-01T11:58:44.065Z,988.60
2018-05-01T11:59:43.123Z,988.56
2018-05-01T12:00:43.131Z,988.64
2018-05-01T12:01:43.086Z,988.55
2018-05-01T12:02:43.160Z,988.41
2018-05-01T12:03:43.049Z,988.55
2018-05-01T12:04:43.036Z,988.71
2018-05-01T12:05:43.016Z,988.46
2018-05-01T12:06:42.998Z,988.53
2018-05-01T12:07:42.990Z,988.69
2018-05-01T12:08:43.002Z,988.42
2018-05-01T12:09:42.950Z,988.42
2018-05-01T12:10:42.934Z,988.43
2018-05-01T12:11:42.913Z,988.41
2018-05-01T12:12:42.897Z,988.38
2018-05-01T12:13:42.876Z,988.56
2018-05-01T12:14:42.856Z,988.80
2018-05-01T12:15:42.838Z,988.81
2018-05-01T12:16:42.817Z,988.72
2018-05-01T12:17:42.800Z,988.65
2018-05-01T12:18:42.875Z,988.80
2018-05-01T12:19:43.358Z,988.77
2018-05-01T12:20:42.750Z,988.53
2018-05-01T12:21:42.726Z,988.35
2018-05-01T12:22:42.710Z,988.35
2018-05-01T12:23:42.706Z,988.40
2018-05-01T12:24:42.677Z,988.39
2018-05-01T12:25:42.664Z,988.36
2018-05-01T12:26:42.660Z,988.57
2018-05-01T12:27:42.650Z,988.44
2018-05-01T12:28:42.603Z,988.55
2018-05-01T12:29:42.626Z,988.32
2018-05-01T12:30:42.603Z,988.35
2018-05-01T12:31:42.543Z,988.23
2018-05-01T12:32:42.532Z,988.38
2018-05-01T12:33:42.514Z,988.21
2018-05-01T12:34:42.491Z,988.49
2018-05-01T12:35:42.496Z,988.41
2018-05-01T12:36:42.554Z,988.47
2018-05-01T12:37:42.500Z,988.36
2018-05-01T12:38:42.497Z,988.55
2018-05-01T12:39:42.445Z,988.40
2018-05-01T12:40:42.628Z,988.32
2018-05-01T12:41:42.433Z,988.37
2018-05-01T12:42:42.347Z,988.30